sensor_id;sensor_type;location;lat;lon;timestamp;P1;durP1;ratioP1;P2;durP2;ratioP2
75135;SDS011;63707;52.212;9.540;2024-02-16T00:00:16;5.60;;;2.20;;
75135;SDS011;63707;52.212;9.540;2024-02-16T00:02:42;3.90;;;1.67;;
75135;SDS011;63707;52.212;9.540;2024-02-16T00:05:09;4.65;;;1.73;;
75135;SDS011;63707;52.212;9.540;2024-02-16T00:07:36;6.75;;;2.00;;
75135;SDS011;63707;52.212;9.540;2024-02-16T00:10:02;3.83;;;1.75;;
75135;SDS011;63707;52.212;9.540;2024-02-16T00:12:29;4.72;;;1.77;;
75135;SDS011;63707;52.212;9.540;2024-02-16T00:14:56;7.05;;;1.75;;
75135;SDS011;63707;52.212;9.540;2024-02-16T00:17:21;6.72;;;2.33;;
75135;SDS011;63707;52.212;9.540;2024-02-16T00:19:47;4.97;;;1.77;;
75135;SDS011;63707;52.212;9.540;2024-02-16T00:22:13;5.15;;;1.80;;
75135;SDS011;63707;52.212;9.540;2024-02-16T00:24:38;5.80;;;1.70;;
75135;SDS011;63707;52.212;9.540;2024-02-16T00:27:04;10.70;;;1.70;;
75135;SDS011;63707;52.212;9.540;2024-02-16T00:29:32;4.95;;;1.80;;
75135;SDS011;63707;52.212;9.540;2024-02-16T00:31:59;4.50;;;2.03;;
75135;SDS011;63707;52.212;9.540;2024-02-16T00:34:25;5.45;;;2.20;;
75135;SDS011;63707;52.212;9.540;2024-02-16T00:36:50;7.40;;;1.88;;
75135;SDS011;63707;52.212;9.540;2024-02-16T00:39:17;5.47;;;1.92;;
75135;SDS011;63707;52.212;9.540;2024-02-16T00:41:42;5.90;;;1.77;;
75135;SDS011;63707;52.212;9.540;2024-02-16T00:44:08;4.95;;;1.98;;
75135;SDS011;63707;52.212;9.540;2024-02-16T00:46:35;6.35;;;1.80;;
75135;SDS011;63707;52.212;9.540;2024-02-16T00:49:02;9.60;;;2.15;;
75135;SDS011;63707;52.212;9.540;2024-02-16T00:51:28;4.72;;;2.20;;
75135;SDS011;63707;52.212;9.540;2024-02-16T00:53:54;4.00;;;1.75;;
75135;SDS011;63707;52.212;9.540;2024-02-16T00:56:20;3.63;;;1.98;;
75135;SDS011;63707;52.212;9.540;2024-02-16T00:58:45;4.85;;;2.00;;
75135;SDS011;63707;52.212;9.540;2024-02-16T01:01:11;5.50;;;2.17;;
75135;SDS011;63707;52.212;9.540;2024-02-16T01:03:37;4.00;;;1.92;;
75135;SDS011;63707;52.212;9.540;2024-02-16T01:06:04;7.47;;;2.33;;
75135;SDS011;63707;52.212;9.540;2024-02-16T01:08:30;8.15;;;2.08;;
75135;SDS011;63707;52.212;9.540;2024-02-16T01:10:56;10.18;;;2.38;;
75135;SDS011;63707;52.212;9.540;2024-02-16T01:13:21;4.85;;;2.03;;
75135;SDS011;63707;52.212;9.540;2024-02-16T01:15:47;7.97;;;2.40;;
75135;SDS011;63707;52.212;9.540;2024-02-16T01:18:12;4.75;;;2.00;;
75135;SDS011;63707;52.212;9.540;2024-02-16T01:20:38;4.68;;;1.95;;
75135;SDS011;63707;52.212;9.540;2024-02-16T01:23:05;6.68;;;1.70;;
75135;SDS011;63707;52.212;9.540;2024-02-16T01:25:30;6.55;;;1.83;;
75135;SDS011;63707;52.212;9.540;2024-02-16T01:27:56;4.93;;;2.00;;
75135;SDS011;63707;52.212;9.540;2024-02-16T01:30:21;3.72;;;2.08;;
75135;SDS011;63707;52.212;9.540;2024-02-16T01:32:47;4.07;;;2.03;;
75135;SDS011;63707;52.212;9.540;2024-02-16T01:35:12;4.10;;;1.70;;
75135;SDS011;63707;52.212;9.540;2024-02-16T01:37:39;6.07;;;2.15;;
75135;SDS011;63707;52.212;9.540;2024-02-16T01:40:08;4.72;;;1.92;;
75135;SDS011;63707;52.212;9.540;2024-02-16T01:42:39;12.65;;;2.25;;
75135;SDS011;63707;52.212;9.540;2024-02-16T01:45:05;5.20;;;1.98;;
75135;SDS011;63707;52.212;9.540;2024-02-16T01:47:31;5.47;;;1.85;;
75135;SDS011;63707;52.212;9.540;2024-02-16T01:49:56;4.22;;;2.00;;
75135;SDS011;63707;52.212;9.540;2024-02-16T01:52:22;5.97;;;1.80;;
75135;SDS011;63707;52.212;9.540;2024-02-16T01:54:47;7.45;;;2.13;;
75135;SDS011;63707;52.212;9.540;2024-02-16T01:57:14;3.60;;;2.10;;
75135;SDS011;63707;52.212;9.540;2024-02-16T01:59:40;4.90;;;2.10;;
75135;SDS011;63707;52.212;9.540;2024-02-16T02:02:06;3.28;;;1.55;;
75135;SDS011;63707;52.212;9.540;2024-02-16T02:04:32;5.93;;;1.98;;
75135;SDS011;63707;52.212;9.540;2024-02-16T02:06:58;7.05;;;2.00;;
75135;SDS011;63707;52.212;9.540;2024-02-16T02:09:23;8.02;;;2.50;;
75135;SDS011;63707;52.212;9.540;2024-02-16T02:11:49;3.85;;;1.75;;
75135;SDS011;63707;52.212;9.540;2024-02-16T02:14:16;6.47;;;2.03;;
75135;SDS011;63707;52.212;9.540;2024-02-16T02:16:41;4.38;;;2.00;;
75135;SDS011;63707;52.212;9.540;2024-02-16T02:19:07;6.20;;;2.03;;
75135;SDS011;63707;52.212;9.540;2024-02-16T02:21:32;8.70;;;1.88;;
75135;SDS011;63707;52.212;9.540;2024-02-16T02:23:59;6.82;;;1.95;;
75135;SDS011;63707;52.212;9.540;2024-02-16T02:26:25;4.20;;;1.75;;
75135;SDS011;63707;52.212;9.540;2024-02-16T02:28:50;5.53;;;1.98;;
75135;SDS011;63707;52.212;9.540;2024-02-16T02:31:15;5.65;;;2.13;;
75135;SDS011;63707;52.212;9.540;2024-02-16T02:33:41;3.38;;;1.80;;
75135;SDS011;63707;52.212;9.540;2024-02-16T02:36:06;5.97;;;1.95;;
75135;SDS011;63707;52.212;9.540;2024-02-16T02:38:32;3.30;;;1.67;;
75135;SDS011;63707;52.212;9.540;2024-02-16T02:40:59;6.03;;;1.67;;
75135;SDS011;63707;52.212;9.540;2024-02-16T02:43:25;5.97;;;1.90;;
75135;SDS011;63707;52.212;9.540;2024-02-16T02:45:50;4.97;;;1.50;;
75135;SDS011;63707;52.212;9.540;2024-02-16T02:48:16;4.70;;;1.90;;
75135;SDS011;63707;52.212;9.540;2024-02-16T02:50:41;6.07;;;2.22;;
75135;SDS011;63707;52.212;9.540;2024-02-16T02:53:06;4.07;;;1.75;;
75135;SDS011;63707;52.212;9.540;2024-02-16T02:55:32;7.00;;;2.08;;
75135;SDS011;63707;52.212;9.540;2024-02-16T02:57:59;6.35;;;1.80;;
75135;SDS011;63707;52.212;9.540;2024-02-16T03:00:24;3.58;;;1.67;;
75135;SDS011;63707;52.212;9.540;2024-02-16T03:02:51;4.15;;;1.83;;
75135;SDS011;63707;52.212;9.540;2024-02-16T03:05:16;6.68;;;1.52;;
75135;SDS011;63707;52.212;9.540;2024-02-16T03:07:43;5.30;;;2.10;;
75135;SDS011;63707;52.212;9.540;2024-02-16T03:10:09;6.97;;;1.90;;
75135;SDS011;63707;52.212;9.540;2024-02-16T03:12:35;6.20;;;1.80;;
75135;SDS011;63707;52.212;9.540;2024-02-16T03:15:02;3.88;;;1.70;;
75135;SDS011;63707;52.212;9.540;2024-02-16T03:17:28;5.05;;;1.88;;
75135;SDS011;63707;52.212;9.540;2024-02-16T03:19:54;3.83;;;1.67;;
75135;SDS011;63707;52.212;9.540;2024-02-16T03:22:20;4.03;;;1.85;;
75135;SDS011;63707;52.212;9.540;2024-02-16T03:24:45;13.20;;;2.13;;
75135;SDS011;63707;52.212;9.540;2024-02-16T03:27:11;6.13;;;1.67;;
75135;SDS011;63707;52.212;9.540;2024-02-16T03:29:37;6.78;;;1.88;;
75135;SDS011;63707;52.212;9.540;2024-02-16T03:32:04;3.80;;;1.75;;
75135;SDS011;63707;52.212;9.540;2024-02-16T03:34:29;5.70;;;1.70;;
75135;SDS011;63707;52.212;9.540;2024-02-16T03:36:55;8.48;;;1.77;;
75135;SDS011;63707;52.212;9.540;2024-02-16T03:39:20;5.03;;;1.65;;
75135;SDS011;63707;52.212;9.540;2024-02-16T03:41:46;5.15;;;1.85;;
75135;SDS011;63707;52.212;9.540;2024-02-16T03:44:14;4.28;;;1.83;;
75135;SDS011;63707;52.212;9.540;2024-02-16T03:46:41;5.38;;;1.70;;
75135;SDS011;63707;52.212;9.540;2024-02-16T03:49:07;5.32;;;1.80;;
75135;SDS011;63707;52.212;9.540;2024-02-16T03:51:33;4.35;;;1.73;;
75135;SDS011;63707;52.212;9.540;2024-02-16T03:53:58;3.53;;;1.60;;
75135;SDS011;63707;52.212;9.540;2024-02-16T03:56:24;5.40;;;1.60;;
75135;SDS011;63707;52.212;9.540;2024-02-16T03:58:50;5.53;;;1.83;;
75135;SDS011;63707;52.212;9.540;2024-02-16T04:01:15;4.63;;;1.83;;
75135;SDS011;63707;52.212;9.540;2024-02-16T04:03:41;4.30;;;1.48;;
75135;SDS011;63707;52.212;9.540;2024-02-16T04:06:08;3.75;;;1.40;;
75135;SDS011;63707;52.212;9.540;2024-02-16T04:08:34;8.27;;;2.15;;
75135;SDS011;63707;52.212;9.540;2024-02-16T04:11:00;3.78;;;1.75;;
75135;SDS011;63707;52.212;9.540;2024-02-16T04:13:25;6.70;;;1.58;;
75135;SDS011;63707;52.212;9.540;2024-02-16T04:15:51;2.58;;;1.48;;
75135;SDS011;63707;52.212;9.540;2024-02-16T04:18:16;4.40;;;1.65;;
75135;SDS011;63707;52.212;9.540;2024-02-16T04:20:43;5.57;;;1.50;;
75135;SDS011;63707;52.212;9.540;2024-02-16T04:23:10;4.03;;;1.63;;
75135;SDS011;63707;52.212;9.540;2024-02-16T04:25:36;6.90;;;1.95;;
75135;SDS011;63707;52.212;9.540;2024-02-16T04:28:01;4.95;;;1.73;;
75135;SDS011;63707;52.212;9.540;2024-02-16T04:30:27;3.70;;;1.95;;
75135;SDS011;63707;52.212;9.540;2024-02-16T04:32:52;6.35;;;1.88;;
75135;SDS011;63707;52.212;9.540;2024-02-16T04:35:18;2.95;;;1.75;;
75135;SDS011;63707;52.212;9.540;2024-02-16T04:37:44;2.38;;;1.63;;
75135;SDS011;63707;52.212;9.540;2024-02-16T04:40:11;4.35;;;1.80;;
75135;SDS011;63707;52.212;9.540;2024-02-16T04:42:37;7.97;;;1.60;;
75135;SDS011;63707;52.212;9.540;2024-02-16T04:45:03;4.13;;;1.85;;
75135;SDS011;63707;52.212;9.540;2024-02-16T04:47:29;5.07;;;1.70;;
75135;SDS011;63707;52.212;9.540;2024-02-16T04:49:55;4.85;;;1.77;;
75135;SDS011;63707;52.212;9.540;2024-02-16T04:52:21;3.75;;;1.80;;
75135;SDS011;63707;52.212;9.540;2024-02-16T04:54:48;5.47;;;1.50;;
75135;SDS011;63707;52.212;9.540;2024-02-16T04:57:14;5.50;;;1.73;;
75135;SDS011;63707;52.212;9.540;2024-02-16T04:59:40;4.20;;;1.48;;
75135;SDS011;63707;52.212;9.540;2024-02-16T05:02:05;6.05;;;2.20;;
75135;SDS011;63707;52.212;9.540;2024-02-16T05:04:32;5.15;;;1.48;;
75135;SDS011;63707;52.212;9.540;2024-02-16T05:06:57;3.28;;;1.45;;
75135;SDS011;63707;52.212;9.540;2024-02-16T05:09:23;6.10;;;1.80;;
75135;SDS011;63707;52.212;9.540;2024-02-16T05:11:49;4.55;;;1.98;;
75135;SDS011;63707;52.212;9.540;2024-02-16T05:14:17;5.32;;;1.80;;
75135;SDS011;63707;52.212;9.540;2024-02-16T05:16:43;5.25;;;1.98;;
75135;SDS011;63707;52.212;9.540;2024-02-16T05:19:09;5.75;;;1.60;;
75135;SDS011;63707;52.212;9.540;2024-02-16T05:21:35;4.22;;;1.73;;
75135;SDS011;63707;52.212;9.540;2024-02-16T05:24:00;5.57;;;1.80;;
75135;SDS011;63707;52.212;9.540;2024-02-16T05:26:26;5.25;;;1.70;;
75135;SDS011;63707;52.212;9.540;2024-02-16T05:28:51;3.70;;;2.05;;
75135;SDS011;63707;52.212;9.540;2024-02-16T05:31:18;5.63;;;1.80;;
75135;SDS011;63707;52.212;9.540;2024-02-16T05:33:44;5.53;;;2.10;;
75135;SDS011;63707;52.212;9.540;2024-02-16T05:36:12;3.63;;;1.80;;
75135;SDS011;63707;52.212;9.540;2024-02-16T05:38:41;4.07;;;1.60;;
75135;SDS011;63707;52.212;9.540;2024-02-16T05:41:08;4.55;;;2.30;;
75135;SDS011;63707;52.212;9.540;2024-02-16T05:43:33;5.13;;;1.85;;
75135;SDS011;63707;52.212;9.540;2024-02-16T05:45:59;6.85;;;1.80;;
75135;SDS011;63707;52.212;9.540;2024-02-16T05:48:26;8.85;;;1.95;;
75135;SDS011;63707;52.212;9.540;2024-02-16T05:50:56;4.32;;;1.88;;
75135;SDS011;63707;52.212;9.540;2024-02-16T05:53:25;5.63;;;1.73;;
75135;SDS011;63707;52.212;9.540;2024-02-16T05:55:50;3.72;;;1.80;;
75135;SDS011;63707;52.212;9.540;2024-02-16T05:58:16;7.60;;;2.42;;
75135;SDS011;63707;52.212;9.540;2024-02-16T06:00:42;6.15;;;1.95;;
75135;SDS011;63707;52.212;9.540;2024-02-16T06:03:08;4.25;;;1.80;;
75135;SDS011;63707;52.212;9.540;2024-02-16T06:05:35;5.70;;;1.90;;
75135;SDS011;63707;52.212;9.540;2024-02-16T06:08:00;4.82;;;1.70;;
75135;SDS011;63707;52.212;9.540;2024-02-16T06:10:26;5.68;;;1.77;;
75135;SDS011;63707;52.212;9.540;2024-02-16T06:12:51;7.05;;;2.42;;
75135;SDS011;63707;52.212;9.540;2024-02-16T06:15:17;6.97;;;2.15;;
75135;SDS011;63707;52.212;9.540;2024-02-16T06:17:42;6.45;;;2.00;;
75135;SDS011;63707;52.212;9.540;2024-02-16T06:20:08;5.57;;;2.13;;
75135;SDS011;63707;52.212;9.540;2024-02-16T06:22:37;7.57;;;1.95;;
75135;SDS011;63707;52.212;9.540;2024-02-16T06:25:03;6.00;;;2.17;;
75135;SDS011;63707;52.212;9.540;2024-02-16T06:27:29;6.57;;;2.03;;
75135;SDS011;63707;52.212;9.540;2024-02-16T06:29:54;4.28;;;1.80;;
75135;SDS011;63707;52.212;9.540;2024-02-16T06:32:20;8.20;;;2.42;;
75135;SDS011;63707;52.212;9.540;2024-02-16T06:34:46;7.25;;;2.10;;
75135;SDS011;63707;52.212;9.540;2024-02-16T06:37:12;6.15;;;1.90;;
75135;SDS011;63707;52.212;9.540;2024-02-16T06:39:39;5.47;;;2.00;;
75135;SDS011;63707;52.212;9.540;2024-02-16T06:42:05;6.28;;;2.50;;
75135;SDS011;63707;52.212;9.540;2024-02-16T06:44:30;5.38;;;1.73;;
75135;SDS011;63707;52.212;9.540;2024-02-16T06:46:56;7.72;;;2.53;;
75135;SDS011;63707;52.212;9.540;2024-02-16T06:49:21;8.35;;;2.13;;
75135;SDS011;63707;52.212;9.540;2024-02-16T06:51:47;5.43;;;1.83;;
75135;SDS011;63707;52.212;9.540;2024-02-16T06:54:12;4.28;;;2.00;;
75135;SDS011;63707;52.212;9.540;2024-02-16T06:56:40;5.30;;;2.30;;
75135;SDS011;63707;52.212;9.540;2024-02-16T06:59:06;8.25;;;2.50;;
75135;SDS011;63707;52.212;9.540;2024-02-16T07:01:31;6.85;;;2.45;;
75135;SDS011;63707;52.212;9.540;2024-02-16T07:03:57;4.75;;;2.30;;
75135;SDS011;63707;52.212;9.540;2024-02-16T07:06:22;9.15;;;2.40;;
75135;SDS011;63707;52.212;9.540;2024-02-16T07:08:48;4.93;;;2.30;;
75135;SDS011;63707;52.212;9.540;2024-02-16T07:11:13;2.80;;;1.88;;
75135;SDS011;63707;52.212;9.540;2024-02-16T07:13:40;6.53;;;2.00;;
75135;SDS011;63707;52.212;9.540;2024-02-16T07:16:07;6.65;;;2.03;;
75135;SDS011;63707;52.212;9.540;2024-02-16T07:18:33;4.25;;;1.92;;
75135;SDS011;63707;52.212;9.540;2024-02-16T07:20:59;4.22;;;2.25;;
75135;SDS011;63707;52.212;9.540;2024-02-16T07:23:24;3.92;;;2.20;;
75135;SDS011;63707;52.212;9.540;2024-02-16T07:25:50;4.78;;;2.10;;
75135;SDS011;63707;52.212;9.540;2024-02-16T07:28:16;4.68;;;2.30;;
75135;SDS011;63707;52.212;9.540;2024-02-16T07:30:43;6.10;;;2.00;;
75135;SDS011;63707;52.212;9.540;2024-02-16T07:33:08;6.97;;;2.40;;
75135;SDS011;63707;52.212;9.540;2024-02-16T07:35:34;5.65;;;2.20;;
75135;SDS011;63707;52.212;9.540;2024-02-16T07:38:03;4.85;;;2.30;;
75135;SDS011;63707;52.212;9.540;2024-02-16T07:40:28;3.95;;;2.00;;
75135;SDS011;63707;52.212;9.540;2024-02-16T07:42:54;9.02;;;2.85;;
75135;SDS011;63707;52.212;9.540;2024-02-16T07:45:20;4.85;;;1.95;;
75135;SDS011;63707;52.212;9.540;2024-02-16T07:47:46;6.82;;;2.08;;
75135;SDS011;63707;52.212;9.540;2024-02-16T07:50:12;5.03;;;2.10;;
75135;SDS011;63707;52.212;9.540;2024-02-16T07:52:38;5.07;;;1.92;;
75135;SDS011;63707;52.212;9.540;2024-02-16T07:55:05;4.88;;;2.35;;
75135;SDS011;63707;52.212;9.540;2024-02-16T07:57:31;7.03;;;2.05;;
75135;SDS011;63707;52.212;9.540;2024-02-16T07:59:57;4.38;;;2.00;;
75135;SDS011;63707;52.212;9.540;2024-02-16T08:02:22;4.05;;;2.10;;
75135;SDS011;63707;52.212;9.540;2024-02-16T08:04:49;4.65;;;2.10;;
75135;SDS011;63707;52.212;9.540;2024-02-16T08:07:15;8.38;;;2.03;;
75135;SDS011;63707;52.212;9.540;2024-02-16T08:09:43;4.90;;;2.30;;
75135;SDS011;63707;52.212;9.540;2024-02-16T08:12:09;7.15;;;2.58;;
75135;SDS011;63707;52.212;9.540;2024-02-16T08:14:35;4.47;;;2.30;;
75135;SDS011;63707;52.212;9.540;2024-02-16T08:17:00;4.78;;;2.25;;
75135;SDS011;63707;52.212;9.540;2024-02-16T08:19:31;5.13;;;2.05;;
75135;SDS011;63707;52.212;9.540;2024-02-16T08:22:00;4.40;;;2.22;;
75135;SDS011;63707;52.212;9.540;2024-02-16T08:24:26;7.05;;;2.22;;
75135;SDS011;63707;52.212;9.540;2024-02-16T08:26:51;9.25;;;2.25;;
75135;SDS011;63707;52.212;9.540;2024-02-16T08:29:17;7.15;;;2.05;;
75135;SDS011;63707;52.212;9.540;2024-02-16T08:31:43;5.07;;;1.88;;
75135;SDS011;63707;52.212;9.540;2024-02-16T08:34:09;6.35;;;2.40;;
75135;SDS011;63707;52.212;9.540;2024-02-16T08:36:35;5.43;;;1.90;;
75135;SDS011;63707;52.212;9.540;2024-02-16T08:39:02;5.22;;;2.13;;
75135;SDS011;63707;52.212;9.540;2024-02-16T08:41:27;4.82;;;2.13;;
75135;SDS011;63707;52.212;9.540;2024-02-16T08:43:53;5.25;;;2.13;;
75135;SDS011;63707;52.212;9.540;2024-02-16T08:46:20;5.05;;;2.30;;
75135;SDS011;63707;52.212;9.540;2024-02-16T08:48:45;5.75;;;2.20;;
75135;SDS011;63707;52.212;9.540;2024-02-16T08:51:12;4.65;;;2.28;;
75135;SDS011;63707;52.212;9.540;2024-02-16T08:53:37;5.20;;;2.00;;
75135;SDS011;63707;52.212;9.540;2024-02-16T08:56:08;7.28;;;2.30;;
75135;SDS011;63707;52.212;9.540;2024-02-16T08:58:34;5.85;;;2.25;;
75135;SDS011;63707;52.212;9.540;2024-02-16T09:00:59;5.35;;;1.90;;
75135;SDS011;63707;52.212;9.540;2024-02-16T09:03:25;3.83;;;1.80;;
75135;SDS011;63707;52.212;9.540;2024-02-16T09:05:51;6.65;;;2.53;;
75135;SDS011;63707;52.212;9.540;2024-02-16T09:08:16;7.57;;;2.25;;
75135;SDS011;63707;52.212;9.540;2024-02-16T09:10:42;6.90;;;2.63;;
75135;SDS011;63707;52.212;9.540;2024-02-16T09:13:09;3.80;;;2.13;;
75135;SDS011;63707;52.212;9.540;2024-02-16T09:15:34;7.30;;;2.35;;
75135;SDS011;63707;52.212;9.540;2024-02-16T09:18:00;8.00;;;2.13;;
75135;SDS011;63707;52.212;9.540;2024-02-16T09:20:25;5.22;;;2.05;;
75135;SDS011;63707;52.212;9.540;2024-02-16T09:22:50;4.75;;;2.25;;
75135;SDS011;63707;52.212;9.540;2024-02-16T09:25:16;5.68;;;2.30;;
75135;SDS011;63707;52.212;9.540;2024-02-16T09:27:41;5.15;;;1.92;;
75135;SDS011;63707;52.212;9.540;2024-02-16T09:30:11;5.78;;;2.22;;
75135;SDS011;63707;52.212;9.540;2024-02-16T09:32:38;4.75;;;2.20;;
75135;SDS011;63707;52.212;9.540;2024-02-16T09:35:04;8.68;;;2.60;;
75135;SDS011;63707;52.212;9.540;2024-02-16T09:37:30;4.68;;;2.00;;
75135;SDS011;63707;52.212;9.540;2024-02-16T09:39:56;3.65;;;2.10;;
75135;SDS011;63707;52.212;9.540;2024-02-16T09:42:22;4.50;;;2.50;;
75135;SDS011;63707;52.212;9.540;2024-02-16T09:44:48;5.03;;;2.53;;
75135;SDS011;63707;52.212;9.540;2024-02-16T09:47:17;7.47;;;2.28;;
75135;SDS011;63707;52.212;9.540;2024-02-16T09:49:44;3.88;;;1.80;;
75135;SDS011;63707;52.212;9.540;2024-02-16T09:52:10;3.92;;;2.10;;
75135;SDS011;63707;52.212;9.540;2024-02-16T09:54:37;8.68;;;2.40;;
75135;SDS011;63707;52.212;9.540;2024-02-16T09:57:04;7.32;;;3.45;;
75135;SDS011;63707;52.212;9.540;2024-02-16T09:59:30;4.28;;;1.95;;
75135;SDS011;63707;52.212;9.540;2024-02-16T10:02:00;7.53;;;2.20;;
75135;SDS011;63707;52.212;9.540;2024-02-16T10:04:27;3.60;;;2.20;;
75135;SDS011;63707;52.212;9.540;2024-02-16T10:06:53;6.40;;;2.20;;
75135;SDS011;63707;52.212;9.540;2024-02-16T10:09:22;6.75;;;2.00;;
75135;SDS011;63707;52.212;9.540;2024-02-16T10:11:48;4.82;;;2.08;;
75135;SDS011;63707;52.212;9.540;2024-02-16T10:14:14;6.32;;;2.35;;
75135;SDS011;63707;52.212;9.540;2024-02-16T10:16:40;6.18;;;2.50;;
75135;SDS011;63707;52.212;9.540;2024-02-16T10:19:05;5.80;;;2.60;;
75135;SDS011;63707;52.212;9.540;2024-02-16T10:21:33;6.28;;;2.25;;
75135;SDS011;63707;52.212;9.540;2024-02-16T10:24:04;4.60;;;2.33;;
75135;SDS011;63707;52.212;9.540;2024-02-16T10:26:33;6.22;;;1.88;;
75135;SDS011;63707;52.212;9.540;2024-02-16T10:29:02;8.60;;;3.13;;
75135;SDS011;63707;52.212;9.540;2024-02-16T10:31:28;4.95;;;2.40;;
75135;SDS011;63707;52.212;9.540;2024-02-16T10:33:57;5.10;;;2.45;;
75135;SDS011;63707;52.212;9.540;2024-02-16T10:36:24;7.50;;;2.33;;
75135;SDS011;63707;52.212;9.540;2024-02-16T10:38:52;6.07;;;2.35;;
75135;SDS011;63707;52.212;9.540;2024-02-16T10:41:19;6.50;;;2.40;;
75135;SDS011;63707;52.212;9.540;2024-02-16T10:43:49;6.55;;;2.92;;
75135;SDS011;63707;52.212;9.540;2024-02-16T10:46:15;5.53;;;2.20;;
75135;SDS011;63707;52.212;9.540;2024-02-16T10:48:41;4.95;;;2.53;;
75135;SDS011;63707;52.212;9.540;2024-02-16T10:51:06;6.72;;;2.40;;
75135;SDS011;63707;52.212;9.540;2024-02-16T10:53:33;4.70;;;2.13;;
75135;SDS011;63707;52.212;9.540;2024-02-16T10:56:02;5.78;;;2.10;;
75135;SDS011;63707;52.212;9.540;2024-02-16T10:58:28;5.45;;;2.13;;
75135;SDS011;63707;52.212;9.540;2024-02-16T11:00:57;4.82;;;2.00;;
75135;SDS011;63707;52.212;9.540;2024-02-16T11:03:23;3.20;;;1.80;;
75135;SDS011;63707;52.212;9.540;2024-02-16T11:05:49;9.02;;;2.50;;
75135;SDS011;63707;52.212;9.540;2024-02-16T11:08:15;5.80;;;2.60;;
75135;SDS011;63707;52.212;9.540;2024-02-16T11:10:53;6.30;;;2.47;;
75135;SDS011;63707;52.212;9.540;2024-02-16T11:13:23;4.88;;;1.92;;
75135;SDS011;63707;52.212;9.540;2024-02-16T11:15:56;4.95;;;2.50;;
75135;SDS011;63707;52.212;9.540;2024-02-16T11:18:22;7.10;;;2.30;;
75135;SDS011;63707;52.212;9.540;2024-02-16T11:20:48;3.67;;;2.13;;
75135;SDS011;63707;52.212;9.540;2024-02-16T11:23:14;4.75;;;2.00;;
75135;SDS011;63707;52.212;9.540;2024-02-16T11:25:49;8.00;;;2.40;;
75135;SDS011;63707;52.212;9.540;2024-02-16T11:28:16;6.35;;;2.75;;
75135;SDS011;63707;52.212;9.540;2024-02-16T11:30:43;5.90;;;2.10;;
75135;SDS011;63707;52.212;9.540;2024-02-16T11:33:10;4.03;;;2.20;;
75135;SDS011;63707;52.212;9.540;2024-02-16T11:35:35;6.20;;;2.20;;
75135;SDS011;63707;52.212;9.540;2024-02-16T11:38:01;5.53;;;2.17;;
75135;SDS011;63707;52.212;9.540;2024-02-16T11:40:26;7.18;;;2.65;;
75135;SDS011;63707;52.212;9.540;2024-02-16T11:42:58;5.88;;;2.30;;
75135;SDS011;63707;52.212;9.540;2024-02-16T11:45:24;5.90;;;2.35;;
75135;SDS011;63707;52.212;9.540;2024-02-16T11:47:51;6.43;;;2.35;;
75135;SDS011;63707;52.212;9.540;2024-02-16T11:50:28;4.35;;;2.22;;
75135;SDS011;63707;52.212;9.540;2024-02-16T11:52:54;5.13;;;2.25;;
75135;SDS011;63707;52.212;9.540;2024-02-16T11:55:20;5.32;;;2.33;;
75135;SDS011;63707;52.212;9.540;2024-02-16T11:57:46;5.40;;;2.75;;
75135;SDS011;63707;52.212;9.540;2024-02-16T12:00:15;5.88;;;2.20;;
75135;SDS011;63707;52.212;9.540;2024-02-16T12:02:41;6.03;;;2.35;;
75135;SDS011;63707;52.212;9.540;2024-02-16T12:05:09;4.20;;;2.33;;
75135;SDS011;63707;52.212;9.540;2024-02-16T12:07:38;5.38;;;2.30;;
75135;SDS011;63707;52.212;9.540;2024-02-16T12:10:07;6.38;;;2.50;;
75135;SDS011;63707;52.212;9.540;2024-02-16T12:12:34;5.72;;;2.30;;
75135;SDS011;63707;52.212;9.540;2024-02-16T12:14:59;8.57;;;2.35;;
75135;SDS011;63707;52.212;9.540;2024-02-16T12:17:25;6.10;;;2.47;;
75135;SDS011;63707;52.212;9.540;2024-02-16T12:19:51;5.05;;;2.30;;
75135;SDS011;63707;52.212;9.540;2024-02-16T12:22:18;3.47;;;2.22;;
75135;SDS011;63707;52.212;9.540;2024-02-16T12:24:44;5.30;;;2.50;;
75135;SDS011;63707;52.212;9.540;2024-02-16T12:27:10;6.95;;;2.50;;
75135;SDS011;63707;52.212;9.540;2024-02-16T12:29:35;5.47;;;2.30;;
75135;SDS011;63707;52.212;9.540;2024-02-16T12:32:01;8.10;;;2.38;;
75135;SDS011;63707;52.212;9.540;2024-02-16T12:34:27;5.63;;;2.63;;
75135;SDS011;63707;52.212;9.540;2024-02-16T12:36:53;6.13;;;2.58;;
75135;SDS011;63707;52.212;9.540;2024-02-16T12:39:19;7.10;;;2.83;;
75135;SDS011;63707;52.212;9.540;2024-02-16T12:41:46;8.52;;;2.40;;
75135;SDS011;63707;52.212;9.540;2024-02-16T12:44:11;9.95;;;2.38;;
75135;SDS011;63707;52.212;9.540;2024-02-16T12:46:37;8.13;;;2.60;;
75135;SDS011;63707;52.212;9.540;2024-02-16T12:49:04;7.53;;;2.70;;
75135;SDS011;63707;52.212;9.540;2024-02-16T12:51:29;7.88;;;2.40;;
75135;SDS011;63707;52.212;9.540;2024-02-16T12:53:55;6.97;;;2.28;;
75135;SDS011;63707;52.212;9.540;2024-02-16T12:56:21;9.35;;;2.65;;
75135;SDS011;63707;52.212;9.540;2024-02-16T12:58:47;6.10;;;2.20;;
75135;SDS011;63707;52.212;9.540;2024-02-16T13:01:13;7.47;;;2.78;;
75135;SDS011;63707;52.212;9.540;2024-02-16T13:03:38;6.22;;;2.78;;
75135;SDS011;63707;52.212;9.540;2024-02-16T13:06:04;7.60;;;2.92;;
75135;SDS011;63707;52.212;9.540;2024-02-16T13:08:30;6.38;;;2.72;;
75135;SDS011;63707;52.212;9.540;2024-02-16T13:10:56;7.00;;;2.88;;
75135;SDS011;63707;52.212;9.540;2024-02-16T13:13:23;5.82;;;3.05;;
75135;SDS011;63707;52.212;9.540;2024-02-16T13:15:49;7.65;;;3.10;;
75135;SDS011;63707;52.212;9.540;2024-02-16T13:18:15;9.15;;;3.22;;
75135;SDS011;63707;52.212;9.540;2024-02-16T13:20:40;7.55;;;2.63;;
75135;SDS011;63707;52.212;9.540;2024-02-16T13:23:06;9.70;;;3.20;;
75135;SDS011;63707;52.212;9.540;2024-02-16T13:25:32;19.73;;;12.88;;
75135;SDS011;63707;52.212;9.540;2024-02-16T13:27:57;11.77;;;3.90;;
75135;SDS011;63707;52.212;9.540;2024-02-16T13:30:25;9.85;;;6.30;;
75135;SDS011;63707;52.212;9.540;2024-02-16T13:32:52;16.42;;;7.30;;
75135;SDS011;63707;52.212;9.540;2024-02-16T13:35:18;11.50;;;4.22;;
75135;SDS011;63707;52.212;9.540;2024-02-16T13:37:43;6.50;;;3.10;;
75135;SDS011;63707;52.212;9.540;2024-02-16T13:40:09;10.75;;;4.78;;
75135;SDS011;63707;52.212;9.540;2024-02-16T13:42:37;5.72;;;3.05;;
75135;SDS011;63707;52.212;9.540;2024-02-16T13:45:03;10.68;;;3.95;;
75135;SDS011;63707;52.212;9.540;2024-02-16T13:47:30;12.15;;;3.78;;
75135;SDS011;63707;52.212;9.540;2024-02-16T13:49:56;9.60;;;4.13;;
75135;SDS011;63707;52.212;9.540;2024-02-16T13:52:22;10.93;;;4.45;;
75135;SDS011;63707;52.212;9.540;2024-02-16T13:54:49;15.73;;;5.85;;
75135;SDS011;63707;52.212;9.540;2024-02-16T13:57:14;9.32;;;4.43;;
75135;SDS011;63707;52.212;9.540;2024-02-16T13:59:39;7.72;;;3.38;;
75135;SDS011;63707;52.212;9.540;2024-02-16T14:02:06;7.88;;;3.55;;
75135;SDS011;63707;52.212;9.540;2024-02-16T14:04:33;9.70;;;4.00;;
75135;SDS011;63707;52.212;9.540;2024-02-16T14:06:59;9.35;;;3.78;;
75135;SDS011;63707;52.212;9.540;2024-02-16T14:09:25;8.93;;;4.05;;
75135;SDS011;63707;52.212;9.540;2024-02-16T14:11:51;9.38;;;4.30;;
75135;SDS011;63707;52.212;9.540;2024-02-16T14:14:18;10.02;;;3.78;;
75135;SDS011;63707;52.212;9.540;2024-02-16T14:16:44;10.32;;;3.80;;
75135;SDS011;63707;52.212;9.540;2024-02-16T14:19:10;9.48;;;3.55;;
75135;SDS011;63707;52.212;9.540;2024-02-16T14:21:37;9.00;;;3.80;;
75135;SDS011;63707;52.212;9.540;2024-02-16T14:24:03;11.10;;;3.80;;
75135;SDS011;63707;52.212;9.540;2024-02-16T14:26:28;7.63;;;3.88;;
75135;SDS011;63707;52.212;9.540;2024-02-16T14:28:54;7.25;;;3.60;;
75135;SDS011;63707;52.212;9.540;2024-02-16T14:31:20;9.75;;;3.88;;
75135;SDS011;63707;52.212;9.540;2024-02-16T14:33:46;12.77;;;4.15;;
75135;SDS011;63707;52.212;9.540;2024-02-16T14:36:12;15.77;;;7.45;;
75135;SDS011;63707;52.212;9.540;2024-02-16T14:38:39;12.10;;;5.68;;
75135;SDS011;63707;52.212;9.540;2024-02-16T14:41:04;9.18;;;3.90;;